sensor_id;sensor_type;location;lat;lon;timestamp;P1;durP1;ratioP1;P2;durP2;ratioP2
20623;SDS011;10471;42.736;23.346;2022-10-31T00:01:32;16.27;;;8.27;;
20623;SDS011;10471;42.736;23.346;2022-10-31T00:03:58;13.07;;;7.80;;
20623;SDS011;10471;42.736;23.346;2022-10-31T00:06:24;17.50;;;9.70;;
20623;SDS011;10471;42.736;23.346;2022-10-31T00:08:54;13.73;;;8.67;;
20623;SDS011;10471;42.736;23.346;2022-10-31T00:11:21;15.60;;;8.80;;
20623;SDS011;10471;42.736;23.346;2022-10-31T00:13:47;15.93;;;8.17;;
20623;SDS011;10471;42.736;23.346;2022-10-31T00:16:13;14.53;;;7.93;;
20623;SDS011;10471;42.736;23.346;2022-10-31T00:18:40;13.67;;;8.70;;
20623;SDS011;10471;42.736;23.346;2022-10-31T00:21:06;14.60;;;9.53;;
20623;SDS011;10471;42.736;23.346;2022-10-31T00:23:31;17.90;;;10.90;;
20623;SDS011;10471;42.736;23.346;2022-10-31T00:26:00;17.37;;;9.50;;
20623;SDS011;10471;42.736;23.346;2022-10-31T00:28:27;22.53;;;13.60;;
20623;SDS011;10471;42.736;23.346;2022-10-31T00:30:57;20.87;;;12.63;;
20623;SDS011;10471;42.736;23.346;2022-10-31T00:33:26;19.43;;;12.43;;
20623;SDS011;10471;42.736;23.346;2022-10-31T00:35:52;17.17;;;10.70;;
20623;SDS011;10471;42.736;23.346;2022-10-31T00:38:17;18.10;;;11.73;;
20623;SDS011;10471;42.736;23.346;2022-10-31T00:40:43;18.70;;;11.70;;
20623;SDS011;10471;42.736;23.346;2022-10-31T00:43:08;16.83;;;10.50;;
20623;SDS011;10471;42.736;23.346;2022-10-31T00:45:33;20.63;;;12.07;;
20623;SDS011;10471;42.736;23.346;2022-10-31T00:47:59;25.70;;;14.73;;
20623;SDS011;10471;42.736;23.346;2022-10-31T00:50:24;19.43;;;12.20;;
20623;SDS011;10471;42.736;23.346;2022-10-31T00:52:50;18.53;;;12.13;;
20623;SDS011;10471;42.736;23.346;2022-10-31T00:55:15;19.23;;;11.73;;
20623;SDS011;10471;42.736;23.346;2022-10-31T00:57:40;17.97;;;11.03;;
20623;SDS011;10471;42.736;23.346;2022-10-31T01:00:06;20.63;;;11.37;;
20623;SDS011;10471;42.736;23.346;2022-10-31T01:02:32;18.70;;;11.27;;
20623;SDS011;10471;42.736;23.346;2022-10-31T01:04:57;21.90;;;11.53;;
20623;SDS011;10471;42.736;23.346;2022-10-31T01:07:23;17.47;;;12.13;;
20623;SDS011;10471;42.736;23.346;2022-10-31T01:09:48;16.77;;;11.43;;
20623;SDS011;10471;42.736;23.346;2022-10-31T01:12:13;17.50;;;11.47;;
20623;SDS011;10471;42.736;23.346;2022-10-31T01:14:42;19.97;;;12.03;;
20623;SDS011;10471;42.736;23.346;2022-10-31T01:17:09;18.53;;;11.10;;
20623;SDS011;10471;42.736;23.346;2022-10-31T01:19:35;19.63;;;11.47;;
20623;SDS011;10471;42.736;23.346;2022-10-31T01:22:00;19.27;;;11.20;;
20623;SDS011;10471;42.736;23.346;2022-10-31T01:24:25;16.73;;;11.27;;
20623;SDS011;10471;42.736;23.346;2022-10-31T01:26:51;16.67;;;10.20;;
20623;SDS011;10471;42.736;23.346;2022-10-31T01:29:16;16.83;;;10.93;;
20623;SDS011;10471;42.736;23.346;2022-10-31T01:31:41;124.90;;;58.37;;
20623;SDS011;10471;42.736;23.346;2022-10-31T01:34:07;40.43;;;19.40;;
20623;SDS011;10471;42.736;23.346;2022-10-31T01:36:33;21.97;;;13.93;;
20623;SDS011;10471;42.736;23.346;2022-10-31T01:39:09;23.80;;;13.33;;
20623;SDS011;10471;42.736;23.346;2022-10-31T01:41:42;19.83;;;12.53;;
20623;SDS011;10471;42.736;23.346;2022-10-31T01:49:13;16.27;;;11.40;;
20623;SDS011;10471;42.736;23.346;2022-10-31T01:51:41;22.93;;;11.83;;
20623;SDS011;10471;42.736;23.346;2022-10-31T01:54:14;21.53;;;11.67;;
20623;SDS011;10471;42.736;23.346;2022-10-31T01:56:42;19.93;;;11.90;;
20623;SDS011;10471;42.736;23.346;2022-10-31T01:59:13;17.23;;;11.37;;
20623;SDS011;10471;42.736;23.346;2022-10-31T02:01:41;16.47;;;11.27;;
20623;SDS011;10471;42.736;23.346;2022-10-31T02:04:07;16.67;;;12.03;;
20623;SDS011;10471;42.736;23.346;2022-10-31T02:06:44;18.23;;;12.10;;
20623;SDS011;10471;42.736;23.346;2022-10-31T02:09:14;17.00;;;11.23;;
20623;SDS011;10471;42.736;23.346;2022-10-31T02:11:40;16.40;;;11.50;;
20623;SDS011;10471;42.736;23.346;2022-10-31T02:14:07;16.87;;;11.70;;
20623;SDS011;10471;42.736;23.346;2022-10-31T02:16:32;19.70;;;14.03;;
20623;SDS011;10471;42.736;23.346;2022-10-31T02:18:57;20.23;;;13.20;;
20623;SDS011;10471;42.736;23.346;2022-10-31T02:27:49;17.70;;;11.60;;
20623;SDS011;10471;42.736;23.346;2022-10-31T02:30:21;18.60;;;11.90;;
20623;SDS011;10471;42.736;23.346;2022-10-31T02:41:48;20.93;;;11.90;;
20623;SDS011;10471;42.736;23.346;2022-10-31T02:47:17;19.33;;;12.80;;
20623;SDS011;10471;42.736;23.346;2022-10-31T02:52:39;17.13;;;11.40;;
20623;SDS011;10471;42.736;23.346;2022-10-31T02:57:36;18.93;;;11.63;;
20623;SDS011;10471;42.736;23.346;2022-10-31T03:00:06;16.80;;;12.03;;
20623;SDS011;10471;42.736;23.346;2022-10-31T03:02:36;17.57;;;12.23;;
20623;SDS011;10471;42.736;23.346;2022-10-31T03:15:32;21.93;;;12.83;;
20623;SDS011;10471;42.736;23.346;2022-10-31T03:20:33;30.93;;;18.90;;
20623;SDS011;10471;42.736;23.346;2022-10-31T03:23:03;22.00;;;13.27;;
20623;SDS011;10471;42.736;23.346;2022-10-31T03:25:31;20.17;;;12.43;;
20623;SDS011;10471;42.736;23.346;2022-10-31T03:27:57;19.97;;;13.33;;
20623;SDS011;10471;42.736;23.346;2022-10-31T03:30:26;20.40;;;12.67;;
20623;SDS011;10471;42.736;23.346;2022-10-31T03:32:52;19.10;;;12.97;;
20623;SDS011;10471;42.736;23.346;2022-10-31T03:35:22;20.73;;;12.10;;
20623;SDS011;10471;42.736;23.346;2022-10-31T03:37:49;20.10;;;12.87;;
20623;SDS011;10471;42.736;23.346;2022-10-31T03:40:18;19.53;;;11.80;;
20623;SDS011;10471;42.736;23.346;2022-10-31T03:42:49;18.87;;;12.27;;
20623;SDS011;10471;42.736;23.346;2022-10-31T03:45:23;19.33;;;12.50;;
20623;SDS011;10471;42.736;23.346;2022-10-31T03:47:51;20.63;;;11.67;;
20623;SDS011;10471;42.736;23.346;2022-10-31T03:50:18;19.70;;;12.17;;
20623;SDS011;10471;42.736;23.346;2022-10-31T03:52:55;20.27;;;11.40;;
20623;SDS011;10471;42.736;23.346;2022-10-31T03:55:26;17.17;;;12.00;;
20623;SDS011;10471;42.736;23.346;2022-10-31T04:00:52;20.73;;;13.17;;
20623;SDS011;10471;42.736;23.346;2022-10-31T04:03:22;21.03;;;12.43;;
20623;SDS011;10471;42.736;23.346;2022-10-31T04:05:52;22.43;;;13.20;;
20623;SDS011;10471;42.736;23.346;2022-10-31T04:08:20;22.00;;;13.17;;
20623;SDS011;10471;42.736;23.346;2022-10-31T04:10:51;21.40;;;13.07;;
20623;SDS011;10471;42.736;23.346;2022-10-31T04:13:20;25.47;;;13.27;;
20623;SDS011;10471;42.736;23.346;2022-10-31T04:15:52;20.10;;;12.97;;
20623;SDS011;10471;42.736;23.346;2022-10-31T04:18:19;24.70;;;13.13;;
20623;SDS011;10471;42.736;23.346;2022-10-31T04:20:45;20.00;;;12.80;;
20623;SDS011;10471;42.736;23.346;2022-10-31T04:23:20;22.83;;;13.30;;
20623;SDS011;10471;42.736;23.346;2022-10-31T04:25:49;20.60;;;12.50;;
20623;SDS011;10471;42.736;23.346;2022-10-31T04:28:15;22.70;;;13.80;;
20623;SDS011;10471;42.736;23.346;2022-10-31T04:30:40;21.53;;;13.27;;
20623;SDS011;10471;42.736;23.346;2022-10-31T04:33:05;23.43;;;15.27;;
20623;SDS011;10471;42.736;23.346;2022-10-31T04:35:31;29.63;;;17.70;;
20623;SDS011;10471;42.736;23.346;2022-10-31T04:37:56;28.97;;;16.83;;
20623;SDS011;10471;42.736;23.346;2022-10-31T04:40:21;27.07;;;16.93;;
20623;SDS011;10471;42.736;23.346;2022-10-31T04:42:47;26.37;;;16.37;;
20623;SDS011;10471;42.736;23.346;2022-10-31T04:45:12;25.83;;;15.63;;
20623;SDS011;10471;42.736;23.346;2022-10-31T04:47:38;22.67;;;15.50;;
20623;SDS011;10471;42.736;23.346;2022-10-31T04:50:03;22.33;;;15.87;;
20623;SDS011;10471;42.736;23.346;2022-10-31T04:52:29;25.07;;;16.20;;
20623;SDS011;10471;42.736;23.346;2022-10-31T04:54:54;24.87;;;16.67;;
20623;SDS011;10471;42.736;23.346;2022-10-31T04:57:19;30.53;;;16.63;;
20623;SDS011;10471;42.736;23.346;2022-10-31T04:59:45;29.77;;;16.67;;
20623;SDS011;10471;42.736;23.346;2022-10-31T05:02:10;27.50;;;15.63;;
20623;SDS011;10471;42.736;23.346;2022-10-31T05:04:36;32.10;;;16.47;;
20623;SDS011;10471;42.736;23.346;2022-10-31T05:07:01;31.83;;;15.40;;
20623;SDS011;10471;42.736;23.346;2022-10-31T05:09:26;27.17;;;15.53;;
20623;SDS011;10471;42.736;23.346;2022-10-31T05:11:52;23.63;;;14.43;;
20623;SDS011;10471;42.736;23.346;2022-10-31T05:14:17;25.73;;;15.50;;
20623;SDS011;10471;42.736;23.346;2022-10-31T05:16:42;31.73;;;15.10;;
20623;SDS011;10471;42.736;23.346;2022-10-31T05:19:08;33.90;;;14.70;;
20623;SDS011;10471;42.736;23.346;2022-10-31T05:21:33;32.10;;;14.90;;
20623;SDS011;10471;42.736;23.346;2022-10-31T05:23:58;39.50;;;16.23;;
20623;SDS011;10471;42.736;23.346;2022-10-31T05:26:24;31.10;;;16.47;;
20623;SDS011;10471;42.736;23.346;2022-10-31T05:28:49;38.57;;;15.90;;
20623;SDS011;10471;42.736;23.346;2022-10-31T05:31:15;32.47;;;16.13;;
20623;SDS011;10471;42.736;23.346;2022-10-31T05:33:40;37.43;;;16.43;;
20623;SDS011;10471;42.736;23.346;2022-10-31T05:36:05;30.27;;;16.00;;
20623;SDS011;10471;42.736;23.346;2022-10-31T05:38:31;30.73;;;15.47;;
20623;SDS011;10471;42.736;23.346;2022-10-31T05:40:56;31.57;;;16.93;;
20623;SDS011;10471;42.736;23.346;2022-10-31T05:43:26;33.03;;;16.37;;
20623;SDS011;10471;42.736;23.346;2022-10-31T05:45:52;31.00;;;15.37;;
20623;SDS011;10471;42.736;23.346;2022-10-31T05:48:18;30.70;;;15.33;;
20623;SDS011;10471;42.736;23.346;2022-10-31T05:50:44;31.57;;;16.10;;
20623;SDS011;10471;42.736;23.346;2022-10-31T05:53:09;25.90;;;15.23;;
20623;SDS011;10471;42.736;23.346;2022-10-31T05:55:35;36.07;;;16.53;;
20623;SDS011;10471;42.736;23.346;2022-10-31T05:58:00;38.67;;;20.50;;
20623;SDS011;10471;42.736;23.346;2022-10-31T06:00:26;34.40;;;17.60;;
20623;SDS011;10471;42.736;23.346;2022-10-31T06:02:59;45.27;;;19.87;;
20623;SDS011;10471;42.736;23.346;2022-10-31T06:05:25;41.83;;;16.83;;
20623;SDS011;10471;42.736;23.346;2022-10-31T06:07:51;37.30;;;16.37;;
20623;SDS011;10471;42.736;23.346;2022-10-31T06:10:16;47.07;;;16.90;;
20623;SDS011;10471;42.736;23.346;2022-10-31T06:12:41;37.23;;;15.43;;
20623;SDS011;10471;42.736;23.346;2022-10-31T06:15:07;36.50;;;15.27;;
20623;SDS011;10471;42.736;23.346;2022-10-31T06:17:35;33.70;;;15.17;;
20623;SDS011;10471;42.736;23.346;2022-10-31T06:20:01;34.37;;;16.50;;
20623;SDS011;10471;42.736;23.346;2022-10-31T06:22:27;40.07;;;15.30;;
20623;SDS011;10471;42.736;23.346;2022-10-31T06:24:53;27.43;;;14.67;;
20623;SDS011;10471;42.736;23.346;2022-10-31T06:27:19;28.30;;;14.70;;
20623;SDS011;10471;42.736;23.346;2022-10-31T06:29:44;29.60;;;14.77;;
20623;SDS011;10471;42.736;23.346;2022-10-31T06:32:13;21.20;;;13.73;;
20623;SDS011;10471;42.736;23.346;2022-10-31T06:34:39;21.10;;;13.17;;
20623;SDS011;10471;42.736;23.346;2022-10-31T06:37:06;20.40;;;13.07;;
20623;SDS011;10471;42.736;23.346;2022-10-31T06:39:32;18.77;;;12.90;;
20623;SDS011;10471;42.736;23.346;2022-10-31T06:41:58;19.83;;;12.63;;
20623;SDS011;10471;42.736;23.346;2022-10-31T06:44:23;19.83;;;11.57;;
20623;SDS011;10471;42.736;23.346;2022-10-31T06:46:49;20.97;;;12.10;;
20623;SDS011;10471;42.736;23.346;2022-10-31T06:49:14;20.00;;;11.63;;
20623;SDS011;10471;42.736;23.346;2022-10-31T06:51:40;15.97;;;11.20;;
20623;SDS011;10471;42.736;23.346;2022-10-31T06:54:06;22.30;;;11.93;;
20623;SDS011;10471;42.736;23.346;2022-10-31T06:56:31;15.57;;;11.00;;
20623;SDS011;10471;42.736;23.346;2022-10-31T06:58:56;16.77;;;11.20;;
20623;SDS011;10471;42.736;23.346;2022-10-31T07:01:22;18.73;;;12.13;;
20623;SDS011;10471;42.736;23.346;2022-10-31T07:03:47;19.93;;;11.90;;
20623;SDS011;10471;42.736;23.346;2022-10-31T07:06:12;17.50;;;11.83;;
20623;SDS011;10471;42.736;23.346;2022-10-31T07:08:38;27.50;;;13.33;;
20623;SDS011;10471;42.736;23.346;2022-10-31T07:11:03;22.40;;;13.33;;
20623;SDS011;10471;42.736;23.346;2022-10-31T07:13:29;21.07;;;12.60;;
20623;SDS011;10471;42.736;23.346;2022-10-31T07:15:55;20.77;;;13.07;;
20623;SDS011;10471;42.736;23.346;2022-10-31T07:18:25;18.87;;;13.80;;
20623;SDS011;10471;42.736;23.346;2022-10-31T07:20:51;19.47;;;13.33;;
20623;SDS011;10471;42.736;23.346;2022-10-31T07:23:17;21.33;;;13.40;;
20623;SDS011;10471;42.736;23.346;2022-10-31T07:25:43;20.50;;;12.87;;
20623;SDS011;10471;42.736;23.346;2022-10-31T07:28:09;19.10;;;13.17;;
20623;SDS011;10471;42.736;23.346;2022-10-31T07:30:35;21.57;;;13.53;;
20623;SDS011;10471;42.736;23.346;2022-10-31T07:33:00;22.77;;;15.00;;
20623;SDS011;10471;42.736;23.346;2022-10-31T07:35:26;23.47;;;14.97;;
20623;SDS011;10471;42.736;23.346;2022-10-31T07:37:53;21.60;;;15.67;;
20623;SDS011;10471;42.736;23.346;2022-10-31T07:40:19;26.33;;;15.17;;
20623;SDS011;10471;42.736;23.346;2022-10-31T07:42:47;21.43;;;15.13;;
20623;SDS011;10471;42.736;23.346;2022-10-31T07:45:17;22.70;;;14.73;;
20623;SDS011;10471;42.736;23.346;2022-10-31T07:47:49;21.83;;;15.30;;
20623;SDS011;10471;42.736;23.346;2022-10-31T07:50:17;25.30;;;16.37;;
20623;SDS011;10471;42.736;23.346;2022-10-31T07:52:44;26.60;;;16.17;;
20623;SDS011;10471;42.736;23.346;2022-10-31T07:55:10;24.30;;;16.37;;
20623;SDS011;10471;42.736;23.346;2022-10-31T07:57:36;25.03;;;16.77;;
20623;SDS011;10471;42.736;23.346;2022-10-31T08:00:08;26.20;;;16.97;;
20623;SDS011;10471;42.736;23.346;2022-10-31T08:02:35;23.00;;;17.30;;
20623;SDS011;10471;42.736;23.346;2022-10-31T08:05:00;29.87;;;16.60;;
20623;SDS011;10471;42.736;23.346;2022-10-31T08:07:27;27.57;;;17.30;;
20623;SDS011;10471;42.736;23.346;2022-10-31T08:09:53;26.50;;;17.37;;
20623;SDS011;10471;42.736;23.346;2022-10-31T08:12:19;28.67;;;16.93;;
20623;SDS011;10471;42.736;23.346;2022-10-31T08:14:45;27.77;;;17.07;;
20623;SDS011;10471;42.736;23.346;2022-10-31T08:17:10;25.57;;;16.93;;
20623;SDS011;10471;42.736;23.346;2022-10-31T08:19:36;25.13;;;16.27;;
20623;SDS011;10471;42.736;23.346;2022-10-31T08:22:01;24.47;;;16.30;;
20623;SDS011;10471;42.736;23.346;2022-10-31T08:24:27;23.23;;;16.83;;
20623;SDS011;10471;42.736;23.346;2022-10-31T08:26:52;21.47;;;15.87;;
20623;SDS011;10471;42.736;23.346;2022-10-31T08:29:18;20.63;;;15.43;;
20623;SDS011;10471;42.736;23.346;2022-10-31T08:31:43;23.43;;;16.33;;
20623;SDS011;10471;42.736;23.346;2022-10-31T08:34:08;26.47;;;15.87;;
20623;SDS011;10471;42.736;23.346;2022-10-31T08:36:34;22.77;;;15.90;;
20623;SDS011;10471;42.736;23.346;2022-10-31T08:39:00;23.00;;;15.30;;
20623;SDS011;10471;42.736;23.346;2022-10-31T08:41:25;20.60;;;15.13;;
20623;SDS011;10471;42.736;23.346;2022-10-31T08:43:51;28.57;;;16.30;;
20623;SDS011;10471;42.736;23.346;2022-10-31T08:46:16;26.80;;;15.37;;
20623;SDS011;10471;42.736;23.346;2022-10-31T08:48:42;26.57;;;14.97;;
20623;SDS011;10471;42.736;23.346;2022-10-31T08:51:07;19.50;;;13.93;;
20623;SDS011;10471;42.736;23.346;2022-10-31T08:53:33;24.03;;;14.57;;
20623;SDS011;10471;42.736;23.346;2022-10-31T08:55:58;22.53;;;14.33;;
20623;SDS011;10471;42.736;23.346;2022-10-31T08:58:24;22.37;;;13.97;;
20623;SDS011;10471;42.736;23.346;2022-10-31T09:00:50;24.80;;;14.67;;
20623;SDS011;10471;42.736;23.346;2022-10-31T09:03:22;23.13;;;14.80;;
20623;SDS011;10471;42.736;23.346;2022-10-31T09:05:49;20.33;;;14.73;;
20623;SDS011;10471;42.736;23.346;2022-10-31T09:08:15;22.80;;;13.63;;
20623;SDS011;10471;42.736;23.346;2022-10-31T09:10:42;26.23;;;15.07;;
20623;SDS011;10471;42.736;23.346;2022-10-31T09:13:12;28.00;;;15.17;;
20623;SDS011;10471;42.736;23.346;2022-10-31T09:15:42;24.77;;;14.80;;
20623;SDS011;10471;42.736;23.346;2022-10-31T09:18:09;27.37;;;14.07;;
20623;SDS011;10471;42.736;23.346;2022-10-31T09:20:35;28.90;;;15.50;;
20623;SDS011;10471;42.736;23.346;2022-10-31T09:23:05;26.83;;;15.50;;
20623;SDS011;10471;42.736;23.346;2022-10-31T09:25:33;25.40;;;14.10;;
20623;SDS011;10471;42.736;23.346;2022-10-31T09:28:00;25.93;;;13.40;;
20623;SDS011;10471;42.736;23.346;2022-10-31T09:30:27;22.33;;;14.00;;
20623;SDS011;10471;42.736;23.346;2022-10-31T09:32:57;20.20;;;12.40;;
20623;SDS011;10471;42.736;23.346;2022-10-31T09:35:24;21.33;;;13.10;;
20623;SDS011;10471;42.736;23.346;2022-10-31T09:37:54;20.20;;;12.63;;
20623;SDS011;10471;42.736;23.346;2022-10-31T09:40:46;25.50;;;12.60;;
20623;SDS011;10471;42.736;23.346;2022-10-31T09:43:25;17.37;;;12.27;;
20623;SDS011;10471;42.736;23.346;2022-10-31T09:51:33;16.57;;;10.50;;
20623;SDS011;10471;42.736;23.346;2022-10-31T09:56:43;21.73;;;12.23;;
20623;SDS011;10471;42.736;23.346;2022-10-31T09:59:42;17.70;;;11.80;;
20623;SDS011;10471;42.736;23.346;2022-10-31T10:02:10;20.43;;;11.47;;
20623;SDS011;10471;42.736;23.346;2022-10-31T10:05:08;19.57;;;11.87;;
20623;SDS011;10471;42.736;23.346;2022-10-31T10:10:24;20.33;;;10.43;;
20623;SDS011;10471;42.736;23.346;2022-10-31T10:27:47;13.77;;;7.57;;
20623;SDS011;10471;42.736;23.346;2022-10-31T10:30:21;15.87;;;7.70;;
20623;SDS011;10471;42.736;23.346;2022-10-31T10:32:52;13.80;;;6.77;;
20623;SDS011;10471;42.736;23.346;2022-10-31T10:35:23;15.23;;;6.73;;
20623;SDS011;10471;42.736;23.346;2022-10-31T10:37:57;11.47;;;6.20;;
20623;SDS011;10471;42.736;23.346;2022-10-31T10:40:36;15.83;;;6.50;;
20623;SDS011;10471;42.736;23.346;2022-10-31T10:46:34;13.33;;;6.40;;
20623;SDS011;10471;42.736;23.346;2022-10-31T10:59:57;13.27;;;6.93;;
20623;SDS011;10471;42.736;23.346;2022-10-31T11:02:26;13.00;;;6.87;;
20623;SDS011;10471;42.736;23.346;2022-10-31T11:04:56;11.97;;;6.17;;
20623;SDS011;10471;42.736;23.346;2022-10-31T11:07:25;13.83;;;5.73;;
20623;SDS011;10471;42.736;23.346;2022-10-31T11:09:51;10.33;;;5.80;;
20623;SDS011;10471;42.736;23.346;2022-10-31T11:12:30;12.67;;;6.10;;
20623;SDS011;10471;42.736;23.346;2022-10-31T11:14:58;12.77;;;5.57;;
20623;SDS011;10471;42.736;23.346;2022-10-31T11:17:32;11.67;;;5.40;;
20623;SDS011;10471;42.736;23.346;2022-10-31T11:20:21;10.77;;;5.53;;
20623;SDS011;10471;42.736;23.346;2022-10-31T11:22:55;10.40;;;5.50;;
20623;SDS011;10471;42.736;23.346;2022-10-31T11:25:26;8.00;;;4.70;;
20623;SDS011;10471;42.736;23.346;2022-10-31T11:27:58;10.03;;;4.90;;
20623;SDS011;10471;42.736;23.346;2022-10-31T11:30:25;11.17;;;4.87;;
20623;SDS011;10471;42.736;23.346;2022-10-31T11:32:50;11.23;;;5.73;;
20623;SDS011;10471;42.736;23.346;2022-10-31T11:35:17;10.50;;;5.27;;
20623;SDS011;10471;42.736;23.346;2022-10-31T11:37:46;10.10;;;5.60;;
20623;SDS011;10471;42.736;23.346;2022-10-31T11:40:23;14.73;;;6.20;;
20623;SDS011;10471;42.736;23.346;2022-10-31T11:42:50;13.10;;;5.73;;
20623;SDS011;10471;42.736;23.346;2022-10-31T11:45:27;10.50;;;5.83;;
20623;SDS011;10471;42.736;23.346;2022-10-31T11:47:56;10.20;;;5.67;;
20623;SDS011;10471;42.736;23.346;2022-10-31T11:50:36;12.80;;;6.40;;
20623;SDS011;10471;42.736;23.346;2022-10-31T11:53:11;13.80;;;6.27;;
20623;SDS011;10471;42.736;23.346;2022-10-31T11:55:40;11.83;;;5.73;;
20623;SDS011;10471;42.736;23.346;2022-10-31T11:58:22;17.63;;;5.80;;
20623;SDS011;10471;42.736;23.346;2022-10-31T12:00:54;12.63;;;5.53;;
20623;SDS011;10471;42.736;23.346;2022-10-31T12:08:34;13.00;;;5.33;;
20623;SDS011;10471;42.736;23.346;2022-10-31T12:16:53;10.67;;;5.30;;
20623;SDS011;10471;42.736;23.346;2022-10-31T12:19:35;10.20;;;5.67;;
20623;SDS011;10471;42.736;23.346;2022-10-31T12:30:20;12.20;;;5.37;;
20623;SDS011;10471;42.736;23.346;2022-10-31T12:33:05;9.43;;;5.53;;
20623;SDS011;10471;42.736;23.346;2022-10-31T12:46:31;15.43;;;5.80;;
20623;SDS011;10471;42.736;23.346;2022-10-31T12:51:44;10.60;;;5.00;;
20623;SDS011;10471;42.736;23.346;2022-10-31T12:59:28;10.07;;;5.17;;
20623;SDS011;10471;42.736;23.346;2022-10-31T13:02:09;13.13;;;5.63;;
20623;SDS011;10471;42.736;23.346;2022-10-31T13:07:15;10.13;;;5.60;;
20623;SDS011;10471;42.736;23.346;2022-10-31T13:10:05;11.37;;;4.90;;
20623;SDS011;10471;42.736;23.346;2022-10-31T13:12:40;9.87;;;5.43;;
20623;SDS011;10471;42.736;23.346;2022-10-31T13:15:15;15.20;;;4.93;;
20623;SDS011;10471;42.736;23.346;2022-10-31T13:17:45;12.57;;;5.47;;
20623;SDS011;10471;42.736;23.346;2022-10-31T13:25:49;10.83;;;5.63;;
20623;SDS011;10471;42.736;23.346;2022-10-31T13:30:51;11.67;;;5.00;;
20623;SDS011;10471;42.736;23.346;2022-10-31T13:33:25;11.80;;;5.53;;
20623;SDS011;10471;42.736;23.346;2022-10-31T13:46:55;10.33;;;4.80;;
20623;SDS011;10471;42.736;23.346;2022-10-31T13:51:50;8.13;;;4.40;;
20623;SDS011;10471;42.736;23.346;2022-10-31T13:54:22;11.83;;;4.30;;
20623;SDS011;10471;42.736;23.346;2022-10-31T13:56:56;15.03;;;5.17;;
20623;SDS011;10471;42.736;23.346;2022-10-31T13:59:22;9.77;;;4.67;;
20623;SDS011;10471;42.736;23.346;2022-10-31T14:01:59;10.87;;;4.87;;
20623;SDS011;10471;42.736;23.346;2022-10-31T14:06:57;17.87;;;5.60;;
20623;SDS011;10471;42.736;23.346;2022-10-31T14:09:36;14.07;;;4.93;;
20623;SDS011;10471;42.736;23.346;2022-10-31T14:12:22;11.90;;;4.90;;
20623;SDS011;10471;42.736;23.346;2022-10-31T14:14:52;10.90;;;4.20;;
20623;SDS011;10471;42.736;23.346;2022-10-31T14:17:23;10.37;;;5.07;;
20623;SDS011;10471;42.736;23.346;2022-10-31T14:22:35;10.17;;;5.03;;
20623;SDS011;10471;42.736;23.346;2022-10-31T14:28:01;8.80;;;4.40;;
20623;SDS011;10471;42.736;23.346;2022-10-31T14:30:50;13.63;;;4.83;;
20623;SDS011;10471;42.736;23.346;2022-10-31T14:33:19;11.87;;;4.90;;
20623;SDS011;10471;42.736;23.346;2022-10-31T14:38:16;11.47;;;4.70;;
20623;SDS011;10471;42.736;23.346;2022-10-31T14:51:46;15.60;;;4.77;;
20623;SDS011;10471;42.736;23.346;2022-10-31T14:54:22;9.00;;;4.80;;
20623;SDS011;10471;42.736;23.346;2022-10-31T14:56:53;15.77;;;6.10;;
20623;SDS011;10471;42.736;23.346;2022-10-31T14:59:24;13.40;;;5.43;;
20623;SDS011;10471;42.736;23.346;2022-10-31T15:01:59;19.47;;;6.10;;
20623;SDS011;10471;42.736;23.346;2022-10-31T15:04:27;16.00;;;6.03;;
20623;SDS011;10471;42.736;23.346;2022-10-31T15:07:47;17.20;;;5.63;;
20623;SDS011;10471;42.736;23.346;2022-10-31T15:09:54;16.33;;;5.80;;
20623;SDS011;10471;42.736;23.346;2022-10-31T15:14:51;18.00;;;6.70;;
20623;SDS011;10471;42.736;23.346;2022-10-31T15:17:17;50.00;;;11.57;;
20623;SDS011;10471;42.736;23.346;2022-10-31T15:19:43;45.67;;;16.93;;
20623;SDS011;10471;42.736;23.346;2022-10-31T15:22:16;33.80;;;16.10;;
20623;SDS011;10471;42.736;23.346;2022-10-31T15:24:44;38.30;;;14.77;;
20623;SDS011;10471;42.736;23.346;2022-10-31T15:27:13;36.33;;;12.93;;
20623;SDS011;10471;42.736;23.346;2022-10-31T15:29:47;29.80;;;10.27;;
20623;SDS011;10471;42.736;23.346;2022-10-31T15:32:18;28.93;;;11.80;;
20623;SDS011;10471;42.736;23.346;2022-10-31T15:34:48;43.67;;;11.87;;
20623;SDS011;10471;42.736;23.346;2022-10-31T15:37:15;39.70;;;12.47;;
20623;SDS011;10471;42.736;23.346;2022-10-31T15:39:42;55.63;;;19.20;;
20623;SDS011;10471;42.736;23.346;2022-10-31T15:42:20;65.67;;;20.53;;
20623;SDS011;10471;42.736;23.346;2022-10-31T15:44:47;243.27;;;146.10;;
20623;SDS011;10471;42.736;23.346;2022-10-31T15:47:18;160.23;;;83.50;;
20623;SDS011;10471;42.736;23.346;2022-10-31T15:49:50;158.13;;;80.70;;
20623;SDS011;10471;42.736;23.346;2022-10-31T15:52:34;130.40;;;67.00;;
20623;SDS011;10471;42.736;23.346;2022-10-31T15:55:05;117.73;;;63.13;;
20623;SDS011;10471;42.736;23.346;2022-10-31T15:57:51;100.37;;;52.73;;
20623;SDS011;10471;42.736;23.346;2022-10-31T16:02:47;95.97;;;46.87;;
20623;SDS011;10471;42.736;23.346;2022-10-31T16:05:17;72.97;;;38.07;;
20623;SDS011;10471;42.736;23.346;2022-10-31T16:07:50;73.83;;;35.93;;
20623;SDS011;10471;42.736;23.346;2022-10-31T16:10:24;69.70;;;32.53;;
20623;SDS011;10471;42.736;23.346;2022-10-31T16:12:50;66.43;;;30.57;;
20623;SDS011;10471;42.736;23.346;2022-10-31T16:15:18;75.20;;;34.93;;
20623;SDS011;10471;42.736;23.346;2022-10-31T16:17:49;89.87;;;43.30;;
20623;SDS011;10471;42.736;23.346;2022-10-31T16:20:34;73.33;;;36.43;;
20623;SDS011;10471;42.736;23.346;2022-10-31T16:22:59;61.67;;;23.37;;
20623;SDS011;10471;42.736;23.346;2022-10-31T16:27:51;40.53;;;14.80;;
20623;SDS011;10471;42.736;23.346;2022-10-31T16:32:59;50.13;;;16.30;;
20623;SDS011;10471;42.736;23.346;2022-10-31T16:37:53;59.67;;;22.73;;
20623;SDS011;10471;42.736;23.346;2022-10-31T16:40:19;66.40;;;27.57;;
20623;SDS011;10471;42.736;23.346;2022-10-31T16:42:45;108.30;;;40.53;;
20623;SDS011;10471;42.736;23.346;2022-10-31T16:45:15;81.67;;;33.60;;
20623;SDS011;10471;42.736;23.346;2022-10-31T16:47:48;80.90;;;34.23;;
20623;SDS011;10471;42.736;23.346;2022-10-31T16:50:16;136.73;;;54.50;;
20623;SDS011;10471;42.736;23.346;2022-10-31T16:52:44;160.20;;;70.50;;
20623;SDS011;10471;42.736;23.346;2022-10-31T16:55:12;81.73;;;36.60;;
20623;SDS011;10471;42.736;23.346;2022-10-31T16:57:39;65.87;;;25.97;;
20623;SDS011;10471;42.736;23.346;2022-10-31T17:00:12;61.33;;;23.17;;
20623;SDS011;10471;42.736;23.346;2022-10-31T17:02:42;64.33;;;25.57;;
20623;SDS011;10471;42.736;23.346;2022-10-31T17:05:11;95.83;;;41.07;;
20623;SDS011;10471;42.736;23.346;2022-10-31T17:21:44;112.97;;;51.43;;
20623;SDS011;10471;42.736;23.346;2022-10-31T17:24:11;87.37;;;37.90;;
20623;SDS011;10471;42.736;23.346;2022-10-31T17:26:38;117.07;;;47.20;;
20623;SDS011;10471;42.736;23.346;2022-10-31T17:29:03;443.20;;;215.67;;
20623;SDS011;10471;42.736;23.346;2022-10-31T17:31:30;115.57;;;51.07;;
20623;SDS011;10471;42.736;23.346;2022-10-31T17:33:57;86.33;;;36.27;;
20623;SDS011;10471;42.736;23.346;2022-10-31T17:36:24;66.83;;;29.03;;